M I D A S
Marine Information and Data Acquisition System
Tripno 1607 of the Zeeleeuw from 2008-11-06 06:15:56 to 2008-11-06 11:15:34
Back to CruiseResearch ActivitiesStationsMapUnderway DataData graphs

EquipmentUnitsComments
TimeDGPSUTC
LatitudeDGPSDM.mWGS84
LongitudeDGPSDM.mWGS84
SpeedMeteo Stationm/sRelative wind speed
DirectionMeteo StationdegRelative wind direction
TemperatureMeteo Stationdeg CelciusAir temperature
PressureMeteo StationPaAtmospheric pressure
HumidityMeteo Station%Relative humidity
Missing or incorrect values are displayed as -999
Metereological data collected by the RV Zeeleeuw from 2008-11-06 05:35:30 to 2008-11-06 11:19:50
Time Latitude Longitude Speed Direction Temperature Pressure Humidity
2008-11-06 05:36 51°13.62 2°56.045 -999 -999 -999 -999 -999
2008-11-06 05:37 51°13.62 2°56.046 -999 -999 -999 -999 -999
2008-11-06 05:38 51°13.621 2°56.046 -999 -999 -999 -999 -999
2008-11-06 05:39 51°13.62 2°56.046 -999 -999 -999 -999 -999
2008-11-06 05:40 51°13.622 2°56.048 -999 -999 -999 -999 -999
2008-11-06 05:41 51°13.623 2°56.048 -999 -999 -999 -999 -999
2008-11-06 05:42 51°13.624 2°56.048 -999 -999 -999 -999 -999
2008-11-06 05:43 51°13.625 2°56.048 -999 -999 -999 -999 -999
2008-11-06 05:44 51°13.625 2°56.048 -999 -999 -999 -999 -999
2008-11-06 05:45 51°13.625 2°56.048 -999 -999 -999 -999 -999
2008-11-06 05:46 51°13.622 2°56.048 -999 -999 -999 -999 -999
2008-11-06 05:47 51°13.623 2°56.047 -999 -999 -999 -999 -999
2008-11-06 05:48 51°13.625 2°56.048 -999 -999 -999 -999 -999
2008-11-06 05:49 51°13.625 2°56.049 -999 -999 -999 -999 -999
2008-11-06 05:50 51°13.624 2°56.049 -999 -999 -999 -999 -999
2008-11-06 05:51 51°13.625 2°56.048 -999 -999 -999 -999 -999
2008-11-06 05:52 51°13.624 2°56.047 -999 -999 -999 -999 -999
2008-11-06 05:53 51°13.623 2°56.048 -999 -999 -999 -999 -999
2008-11-06 05:54 51°13.623 2°56.048 -999 -999 -999 -999 -999
2008-11-06 05:55 51°13.623 2°56.048 -999 -999 -999 -999 -999
2008-11-06 05:56 51°13.623 2°56.047 -999 -999 -999 -999 -999
2008-11-06 05:57 51°13.623 2°56.048 -999 -999 -999 -999 -999
2008-11-06 05:58 51°13.622 2°56.047 -999 -999 -999 -999 -999
2008-11-06 05:59 51°13.623 2°56.047 -999 -999 -999 -999 -999
2008-11-06 06:00 51°13.623 2°56.047 -999 -999 -999 -999 -999
2008-11-06 06:01 51°13.623 2°56.047 -999 -999 -999 -999 -999
2008-11-06 06:02 51°13.623 2°56.047 -999 -999 -999 -999 -999
2008-11-06 06:03 51°13.623 2°56.048 -999 -999 -999 -999 -999
2008-11-06 06:04 51°13.624 2°56.048 -999 -999 -999 -999 -999
2008-11-06 06:05 51°13.624 2°56.047 -999 -999 -999 -999 -999
2008-11-06 06:06 51°13.623 2°56.047 -999 -999 -999 -999 -999
2008-11-06 06:07 51°13.623 2°56.048 -999 -999 -999 -999 -999
2008-11-06 06:08 51°13.623 2°56.049 -999 -999 -999 -999 -999
2008-11-06 06:09 51°13.627 2°56.026 -999 -999 -999 -999 -999
2008-11-06 06:10 51°13.654 2°55.931 -999 -999 -999 -999 -999
2008-11-06 06:11 51°13.699 2°55.818 -999 -999 -999 -999 -999
2008-11-06 06:12 51°13.756 2°55.71 -999 -999 -999 -999 -999
2008-11-06 06:13 51°13.833 2°55.638 -999 -999 -999 -999 -999
2008-11-06 06:14 51°13.911 2°55.641 -999 -999 -999 -999 -999
2008-11-06 06:15 51°13.942 2°55.665 -999 -999 -999 -999 -999
2008-11-06 06:16 51°13.979 2°55.568 -999 -999 -999 -999 -999
2008-11-06 06:17 51°14.084 2°55.455 -999 -999 -999 -999 -999
2008-11-06 06:18 51°14.209 2°55.327 -999 -999 -999 -999 -999
2008-11-06 06:19 51°14.323 2°55.133 -999 -999 -999 -999 -999
2008-11-06 06:20 51°14.442 2°54.924 -999 -999 -999 -999 -999
2008-11-06 06:21 51°14.552 2°54.696 -999 -999 -999 -999 -999
2008-11-06 06:22 51°14.649 2°54.445 -999 -999 -999 -999 -999
2008-11-06 06:23 51°14.745 2°54.177 -999 -999 -999 -999 -999
2008-11-06 06:24 51°14.844 2°53.893 -999 -999 -999 -999 -999
2008-11-06 06:25 51°14.94 2°53.614 -999 -999 -999 -999 -999
2008-11-06 06:26 51°15.041 2°53.326 -999 -999 -999 -999 -999
2008-11-06 06:27 51°15.138 2°53.047 -999 -999 -999 -999 -999
2008-11-06 06:28 51°15.229 2°52.773 -999 -999 -999 -999 -999
2008-11-06 06:29 51°15.315 2°52.483 -999 -999 -999 -999 -999
2008-11-06 06:30 51°15.383 2°52.197 -999 -999 -999 -999 -999
2008-11-06 06:31 51°15.444 2°51.9 -999 -999 -999 -999 -999
2008-11-06 06:32 51°15.494 2°51.609 -999 -999 -999 -999 -999
2008-11-06 06:33 51°15.541 2°51.306 -999 -999 -999 -999 -999
2008-11-06 06:34 51°15.589 2°51.013 -999 -999 -999 -999 -999
2008-11-06 06:35 51°15.639 2°50.711 -999 -999 -999 -999 -999
2008-11-06 06:36 51°15.687 2°50.412 -999 -999 -999 -999 -999
2008-11-06 06:37 51°15.729 2°50.111 -999 -999 -999 -999 -999
2008-11-06 06:38 51°15.766 2°49.809 -999 -999 -999 -999 -999
2008-11-06 06:39 51°15.801 2°49.506 -999 -999 -999 -999 -999
2008-11-06 06:40 51°15.84 2°49.203 -999 -999 -999 -999 -999
2008-11-06 06:41 51°15.875 2°48.903 -999 -999 -999 -999 -999
2008-11-06 06:42 51°15.909 2°48.593 -999 -999 -999 -999 -999
2008-11-06 06:43 51°15.936 2°48.294 -999 -999 -999 -999 -999
2008-11-06 06:44 51°15.963 2°47.985 -999 -999 -999 -999 -999
2008-11-06 06:45 51°15.992 2°47.679 -999 -999 -999 -999 -999
2008-11-06 06:46 51°16.026 2°47.378 -999 -999 -999 -999 -999
2008-11-06 06:47 51°16.053 2°47.07 -999 -999 -999 -999 -999
2008-11-06 06:48 51°16.08 2°46.773 -999 -999 -999 -999 -999
2008-11-06 06:49 51°16.115 2°46.468 -999 -999 -999 -999 -999
2008-11-06 06:50 51°16.18 2°46.182 -999 -999 -999 -999 -999
2008-11-06 06:51 51°16.264 2°45.892 -999 -999 -999 -999 -999
2008-11-06 06:52 51°16.369 2°45.622 -999 -999 -999 -999 -999
2008-11-06 06:53 51°16.513 2°45.395 -999 -999 -999 -999 -999
2008-11-06 06:54 51°16.687 2°45.216 -999 -999 -999 -999 -999
2008-11-06 06:55 51°16.864 2°45.042 -999 -999 -999 -999 -999
2008-11-06 06:56 51°17.046 2°44.881 -999 -999 -999 -999 -999
2008-11-06 06:57 51°17.229 2°44.717 -999 -999 -999 -999 -999
2008-11-06 06:58 51°17.41 2°44.549 -999 -999 -999 -999 -999
2008-11-06 06:59 51°17.589 2°44.381 -999 -999 -999 -999 -999
2008-11-06 07:00 51°17.766 2°44.21 -999 -999 -999 -999 -999
2008-11-06 07:01 51°17.943 2°44.041 -999 -999 -999 -999 -999
2008-11-06 07:02 51°18.12 2°43.876 -999 -999 -999 -999 -999
2008-11-06 07:03 51°18.295 2°43.707 -999 -999 -999 -999 -999
2008-11-06 07:04 51°18.469 2°43.536 -999 -999 -999 -999 -999
2008-11-06 07:05 51°18.656 2°43.371 -999 -999 -999 -999 -999
2008-11-06 07:06 51°18.814 2°43.168 -999 -999 -999 -999 -999
2008-11-06 07:07 51°18.931 2°42.899 -999 -999 -999 -999 -999
2008-11-06 07:08 51°19.004 2°42.602 -999 -999 -999 -999 -999
2008-11-06 07:09 51°19.069 2°42.3 -999 -999 -999 -999 -999
2008-11-06 07:10 51°19.134 2°42 -999 -999 -999 -999 -999
2008-11-06 07:11 51°19.209 2°41.704 -999 -999 -999 -999 -999
2008-11-06 07:12 51°19.288 2°41.412 -999 -999 -999 -999 -999
2008-11-06 07:13 51°19.364 2°41.12 -999 -999 -999 -999 -999
2008-11-06 07:14 51°19.437 2°40.824 -999 -999 -999 -999 -999
2008-11-06 07:15 51°19.516 2°40.534 -999 -999 -999 -999 -999
2008-11-06 07:16 51°19.577 2°40.233 -999 -999 -999 -999 -999
2008-11-06 07:17 51°19.632 2°39.926 -999 -999 -999 -999 -999
2008-11-06 07:18 51°19.681 2°39.617 -999 -999 -999 -999 -999
2008-11-06 07:19 51°19.725 2°39.308 -999 -999 -999 -999 -999
2008-11-06 07:20 51°19.772 2°38.997 -999 -999 -999 -999 -999
2008-11-06 07:21 51°19.828 2°38.688 -999 -999 -999 -999 -999
2008-11-06 07:22 51°19.88 2°38.383 -999 -999 -999 -999 -999
2008-11-06 07:23 51°19.93 2°38.069 -999 -999 -999 -999 -999
2008-11-06 07:24 51°19.974 2°37.767 -999 -999 -999 -999 -999
2008-11-06 07:25 51°20.022 2°37.5 -999 -999 -999 -999 -999
2008-11-06 07:26 51°20.057 2°37.326 -999 -999 -999 -999 -999
2008-11-06 07:27 51°20.087 2°37.183 -999 -999 -999 -999 -999
2008-11-06 07:28 51°20.106 2°37.146 -999 -999 -999 -999 -999
2008-11-06 07:29 51°20.122 2°37.146 -999 -999 -999 -999 -999
2008-11-06 07:30 51°20.139 2°37.149 -999 -999 -999 -999 -999
2008-11-06 07:31 51°20.157 2°37.155 -999 -999 -999 -999 -999
2008-11-06 07:32 51°20.174 2°37.159 -999 -999 -999 -999 -999
2008-11-06 07:33 51°20.191 2°37.163 -999 -999 -999 -999 -999
2008-11-06 07:34 51°20.207 2°37.169 -999 -999 -999 -999 -999
2008-11-06 07:35 51°20.222 2°37.176 -999 -999 -999 -999 -999
2008-11-06 07:36 51°20.227 2°37.146 -999 -999 -999 -999 -999
2008-11-06 07:37 51°20.181 2°37.143 -999 -999 -999 -999 -999
2008-11-06 07:38 51°20.102 2°37.178 -999 -999 -999 -999 -999
2008-11-06 07:39 51°19.974 2°37.146 -999 -999 -999 -999 -999
2008-11-06 07:40 51°19.942 2°37.005 -999 -999 -999 -999 -999
2008-11-06 07:41 51°19.956 2°36.96 -999 -999 -999 -999 -999
2008-11-06 07:42 51°19.973 2°36.954 -999 -999 -999 -999 -999
2008-11-06 07:43 51°19.996 2°36.938 -999 -999 -999 -999 -999
2008-11-06 07:44 51°20.017 2°36.927 -999 -999 -999 -999 -999
2008-11-06 07:45 51°20.036 2°36.92 -999 -999 -999 -999 -999
2008-11-06 07:46 51°20.055 2°36.915 -999 -999 -999 -999 -999
2008-11-06 07:47 51°20.071 2°36.908 -999 -999 -999 -999 -999
2008-11-06 07:48 51°20.086 2°36.903 -999 -999 -999 -999 -999
2008-11-06 07:49 51°20.1 2°36.899 -999 -999 -999 -999 -999
2008-11-06 07:50 51°20.114 2°36.898 -999 -999 -999 -999 -999
2008-11-06 07:51 51°20.129 2°36.9 -999 -999 -999 -999 -999
2008-11-06 07:52 51°20.142 2°36.902 -999 -999 -999 -999 -999
2008-11-06 07:53 51°20.156 2°36.907 -999 -999 -999 -999 -999
2008-11-06 07:54 51°20.171 2°36.913 -999 -999 -999 -999 -999
2008-11-06 07:55 51°20.186 2°36.92 -999 -999 -999 -999 -999
2008-11-06 07:56 51°20.2 2°36.927 -999 -999 -999 -999 -999
2008-11-06 07:57 51°20.215 2°36.935 -999 -999 -999 -999 -999
2008-11-06 07:58 51°20.23 2°36.944 -999 -999 -999 -999 -999
2008-11-06 07:59 51°20.245 2°36.953 -999 -999 -999 -999 -999
2008-11-06 08:00 51°20.26 2°36.962 -999 -999 -999 -999 -999
2008-11-06 08:01 51°20.274 2°36.971 -999 -999 -999 -999 -999
2008-11-06 08:02 51°20.289 2°36.981 -999 -999 -999 -999 -999
2008-11-06 08:03 51°20.304 2°36.991 -999 -999 -999 -999 -999
2008-11-06 08:04 51°20.311 2°36.957 -999 -999 -999 -999 -999
2008-11-06 08:05 51°20.249 2°36.957 -999 -999 -999 -999 -999
2008-11-06 08:06 51°20.199 2°36.954 -999 -999 -999 -999 -999
2008-11-06 08:07 51°20.189 2°36.937 -999 -999 -999 -999 -999
2008-11-06 08:08 51°20.196 2°36.926 -999 -999 -999 -999 -999
2008-11-06 08:09 51°20.208 2°36.917 -999 -999 -999 -999 -999
2008-11-06 08:10 51°20.22 2°36.91 -999 -999 -999 -999 -999
2008-11-06 08:11 51°20.233 2°36.906 -999 -999 -999 -999 -999
2008-11-06 08:12 51°20.246 2°36.904 -999 -999 -999 -999 -999
2008-11-06 08:13 51°20.259 2°36.904 -999 -999 -999 -999 -999
2008-11-06 08:14 51°20.273 2°36.905 -999 -999 -999 -999 -999
2008-11-06 08:15 51°20.286 2°36.906 -999 -999 -999 -999 -999
2008-11-06 08:16 51°20.3 2°36.907 -999 -999 -999 -999 -999
2008-11-06 08:17 51°20.313 2°36.91 -999 -999 -999 -999 -999
2008-11-06 08:18 51°20.315 2°36.886 -999 -999 -999 -999 -999
2008-11-06 08:19 51°20.288 2°36.879 -999 -999 -999 -999 -999
2008-11-06 08:20 51°20.255 2°36.898 -999 -999 -999 -999 -999
2008-11-06 08:21 51°20.239 2°36.92 -999 -999 -999 -999 -999
2008-11-06 08:22 51°20.232 2°36.939 -999 -999 -999 -999 -999
2008-11-06 08:23 51°20.232 2°36.957 -999 -999 -999 -999 -999
2008-11-06 08:24 51°20.236 2°36.972 -999 -999 -999 -999 -999
2008-11-06 08:25 51°20.243 2°36.985 -999 -999 -999 -999 -999
2008-11-06 08:26 51°20.253 2°36.998 -999 -999 -999 -999 -999
2008-11-06 08:27 51°20.265 2°37.01 -999 -999 -999 -999 -999
2008-11-06 08:28 51°20.278 2°37.021 -999 -999 -999 -999 -999
2008-11-06 08:29 51°20.284 2°37.047 -999 -999 -999 -999 -999
2008-11-06 08:30 51°20.264 2°37.074 -999 -999 -999 -999 -999
2008-11-06 08:31 51°20.243 2°37.063 -999 -999 -999 -999 -999
2008-11-06 08:32 51°20.234 2°37.045 -999 -999 -999 -999 -999
2008-11-06 08:33 51°20.233 2°37.029 -999 -999 -999 -999 -999
2008-11-06 08:34 51°20.238 2°37.015 -999 -999 -999 -999 -999
2008-11-06 08:35 51°20.246 2°37.002 -999 -999 -999 -999 -999
2008-11-06 08:36 51°20.256 2°36.992 -999 -999 -999 -999 -999
2008-11-06 08:37 51°20.268 2°36.984 -999 -999 -999 -999 -999
2008-11-06 08:38 51°20.28 2°36.978 -999 -999 -999 -999 -999
2008-11-06 08:39 51°20.293 2°36.973 -999 -999 -999 -999 -999
2008-11-06 08:40 51°20.306 2°36.971 -999 -999 -999 -999 -999
2008-11-06 08:41 51°20.319 2°36.97 -999 -999 -999 -999 -999
2008-11-06 08:42 51°20.332 2°36.971 -999 -999 -999 -999 -999
2008-11-06 08:43 51°20.346 2°36.971 -999 -999 -999 -999 -999
2008-11-06 08:44 51°20.359 2°36.973 -999 -999 -999 -999 -999
2008-11-06 08:45 51°20.373 2°36.974 -999 -999 -999 -999 -999
2008-11-06 08:46 51°20.384 2°36.948 -999 -999 -999 -999 -999
2008-11-06 08:47 51°20.367 2°36.911 -999 -999 -999 -999 -999
2008-11-06 08:48 51°20.342 2°36.909 -999 -999 -999 -999 -999
2008-11-06 08:49 51°20.314 2°36.92 -999 -999 -999 -999 -999
2008-11-06 08:50 51°20.289 2°36.925 -999 -999 -999 -999 -999
2008-11-06 08:51 51°20.269 2°36.923 -999 -999 -999 -999 -999
2008-11-06 08:52 51°20.254 2°36.917 -999 -999 -999 -999 -999
2008-11-06 08:53 51°20.246 2°36.905 -999 -999 -999 -999 -999
2008-11-06 08:54 51°20.243 2°36.893 -999 -999 -999 -999 -999
2008-11-06 08:55 51°20.247 2°36.88 -999 -999 -999 -999 -999
2008-11-06 08:56 51°20.253 2°36.868 -999 -999 -999 -999 -999
2008-11-06 08:57 51°20.262 2°36.857 -999 -999 -999 -999 -999
2008-11-06 08:58 51°20.272 2°36.848 -999 -999 -999 -999 -999
2008-11-06 08:59 51°20.283 2°36.839 -999 -999 -999 -999 -999
2008-11-06 09:00 51°20.295 2°36.829 -999 -999 -999 -999 -999
2008-11-06 09:01 51°20.303 2°36.792 -999 -999 -999 -999 -999
2008-11-06 09:02 51°20.309 2°36.76 -999 -999 -999 -999 -999
2008-11-06 09:03 51°20.316 2°36.735 -999 -999 -999 -999 -999
2008-11-06 09:04 51°20.323 2°36.718 -999 -999 -999 -999 -999
2008-11-06 09:05 51°20.328 2°36.696 -999 -999 -999 -999 -999
2008-11-06 09:06 51°20.305 2°36.67 -999 -999 -999 -999 -999
2008-11-06 09:07 51°20.273 2°36.7 -999 -999 -999 -999 -999
2008-11-06 09:08 51°20.255 2°36.744 -999 -999 -999 -999 -999
2008-11-06 09:09 51°20.248 2°36.781 -999 -999 -999 -999 -999
2008-11-06 09:10 51°20.246 2°36.811 -999 -999 -999 -999 -999
2008-11-06 09:11 51°20.247 2°36.833 -999 -999 -999 -999 -999
2008-11-06 09:12 51°20.249 2°36.851 -999 -999 -999 -999 -999
2008-11-06 09:13 51°20.253 2°36.864 -999 -999 -999 -999 -999
2008-11-06 09:14 51°20.256 2°36.874 -999 -999 -999 -999 -999
2008-11-06 09:15 51°20.26 2°36.884 -999 -999 -999 -999 -999
2008-11-06 09:16 51°20.266 2°36.893 -999 -999 -999 -999 -999
2008-11-06 09:17 51°20.272 2°36.903 -999 -999 -999 -999 -999
2008-11-06 09:18 51°20.279 2°36.913 -999 -999 -999 -999 -999
2008-11-06 09:19 51°20.286 2°36.924 -999 -999 -999 -999 -999
2008-11-06 09:20 51°20.292 2°36.933 -999 -999 -999 -999 -999
2008-11-06 09:21 51°20.299 2°36.942 -999 -999 -999 -999 -999
2008-11-06 09:22 51°20.307 2°36.95 -999 -999 -999 -999 -999
2008-11-06 09:23 51°20.314 2°36.957 -999 -999 -999 -999 -999
2008-11-06 09:24 51°20.321 2°36.963 -999 -999 -999 -999 -999
2008-11-06 09:25 51°20.328 2°36.967 -999 -999 -999 -999 -999
2008-11-06 09:26 51°20.336 2°36.97 -999 -999 -999 -999 -999
2008-11-06 09:27 51°20.342 2°36.976 -999 -999 -999 -999 -999
2008-11-06 09:28 51°20.336 2°36.997 -999 -999 -999 -999 -999
2008-11-06 09:29 51°20.314 2°37.002 -999 -999 -999 -999 -999
2008-11-06 09:30 51°20.295 2°36.982 -999 -999 -999 -999 -999
2008-11-06 09:31 51°20.274 2°36.965 -999 -999 -999 -999 -999
2008-11-06 09:32 51°20.258 2°36.972 -999 -999 -999 -999 -999
2008-11-06 09:33 51°20.253 2°36.985 -999 -999 -999 -999 -999
2008-11-06 09:34 51°20.254 2°36.998 -999 -999 -999 -999 -999
2008-11-06 09:35 51°20.257 2°37.007 -999 -999 -999 -999 -999
2008-11-06 09:36 51°20.225 2°37.017 -999 -999 -999 -999 -999
2008-11-06 09:37 51°20.2 2°36.953 -999 -999 -999 -999 -999
2008-11-06 09:38 51°20.218 2°36.88 -999 -999 -999 -999 -999
2008-11-06 09:39 51°20.244 2°36.823 -999 -999 -999 -999 -999
2008-11-06 09:40 51°20.265 2°36.777 -999 -999 -999 -999 -999
2008-11-06 09:41 51°20.279 2°36.742 -999 -999 -999 -999 -999
2008-11-06 09:42 51°20.289 2°36.715 -999 -999 -999 -999 -999
2008-11-06 09:43 51°20.298 2°36.692 -999 -999 -999 -999 -999
2008-11-06 09:44 51°20.307 2°36.675 -999 -999 -999 -999 -999
2008-11-06 09:45 51°20.315 2°36.659 -999 -999 -999 -999 -999
2008-11-06 09:46 51°20.323 2°36.645 -999 -999 -999 -999 -999
2008-11-06 09:47 51°20.332 2°36.633 -999 -999 -999 -999 -999
2008-11-06 09:48 51°20.339 2°36.607 -999 -999 -999 -999 -999
2008-11-06 09:49 51°20.311 2°36.538 -999 -999 -999 -999 -999
2008-11-06 09:50 51°20.254 2°36.56 -999 -999 -999 -999 -999
2008-11-06 09:51 51°20.226 2°36.684 -999 -999 -999 -999 -999
2008-11-06 09:52 51°20.188 2°36.876 -999 -999 -999 -999 -999
2008-11-06 09:53 51°20.143 2°37.102 -999 -999 -999 -999 -999
2008-11-06 09:54 51°20.094 2°37.331 -999 -999 -999 -999 -999
2008-11-06 09:55 51°20.039 2°37.583 -999 -999 -999 -999 -999
2008-11-06 09:56 51°19.979 2°37.853 -999 -999 -999 -999 -999
2008-11-06 09:57 51°19.915 2°38.146 -999 -999 -999 -999 -999
2008-11-06 09:58 51°19.847 2°38.444 -999 -999 -999 -999 -999
2008-11-06 09:59 51°19.781 2°38.744 -999 -999 -999 -999 -999
2008-11-06 10:00 51°19.719 2°39.047 -999 -999 -999 -999 -999
2008-11-06 10:01 51°19.653 2°39.347 -999 -999 -999 -999 -999
2008-11-06 10:02 51°19.592 2°39.652 -999 -999 -999 -999 -999
2008-11-06 10:03 51°19.528 2°39.953 -999 -999 -999 -999 -999
2008-11-06 10:04 51°19.464 2°40.254 -999 -999 -999 -999 -999
2008-11-06 10:05 51°19.393 2°40.549 -999 -999 -999 -999 -999
2008-11-06 10:06 51°19.324 2°40.845 -999 -999 -999 -999 -999
2008-11-06 10:07 51°19.254 2°41.142 -999 -999 -999 -999 -999
2008-11-06 10:08 51°19.189 2°41.441 -999 -999 -999 -999 -999
2008-11-06 10:09 51°19.122 2°41.74 -999 -999 -999 -999 -999
2008-11-06 10:10 51°19.051 2°42.035 -999 -999 -999 -999 -999
2008-11-06 10:11 51°18.97 2°42.326 -999 -999 -999 -999 -999
2008-11-06 10:12 51°18.885 2°42.614 -999 -999 -999 -999 -999
2008-11-06 10:13 51°18.794 2°42.897 -999 -999 -999 -999 -999
2008-11-06 10:14 51°18.702 2°43.179 -999 -999 -999 -999 -999
2008-11-06 10:15 51°18.601 2°43.453 -999 -999 -999 -999 -999
2008-11-06 10:16 51°18.473 2°43.696 -999 -999 -999 -999 -999
2008-11-06 10:17 51°18.317 2°43.887 -999 -999 -999 -999 -999
2008-11-06 10:18 51°18.156 2°44.057 -999 -999 -999 -999 -999
2008-11-06 10:19 51°17.99 2°44.224 -999 -999 -999 -999 -999
2008-11-06 10:20 51°17.824 2°44.387 -999 -999 -999 -999 -999
2008-11-06 10:21 51°17.653 2°44.547 -999 -999 -999 -999 -999
2008-11-06 10:22 51°17.487 2°44.715 -999 -999 -999 -999 -999
2008-11-06 10:23 51°17.316 2°44.88 -999 -999 -999 -999 -999
2008-11-06 10:24 51°17.144 2°45.047 -999 -999 -999 -999 -999
2008-11-06 10:25 51°16.974 2°45.213 -999 -999 -999 -999 -999
2008-11-06 10:26 51°16.803 2°45.378 -999 -999 -999 -999 -999
2008-11-06 10:27 51°16.632 2°45.544 -999 -999 -999 -999 -999
2008-11-06 10:28 51°16.452 2°45.677 -999 -999 -999 -999 -999
2008-11-06 10:29 51°16.255 2°45.668 -999 -999 -999 -999 -999
2008-11-06 10:30 51°16.068 2°45.546 -999 -999 -999 -999 -999
2008-11-06 10:31 51°15.882 2°45.41 -999 -999 -999 -999 -999
2008-11-06 10:32 51°15.686 2°45.318 -999 -999 -999 -999 -999
2008-11-06 10:33 51°15.485 2°45.35 -999 -999 -999 -999 -999
2008-11-06 10:34 51°15.307 2°45.488 -999 -999 -999 -999 -999
2008-11-06 10:35 51°15.179 2°45.716 -999 -999 -999 -999 -999
2008-11-06 10:36 51°15.113 2°46.005 -999 -999 -999 -999 -999
2008-11-06 10:37 51°15.08 2°46.309 -999 -999 -999 -999 -999
2008-11-06 10:38 51°15.06 2°46.614 -999 -999 -999 -999 -999
2008-11-06 10:39 51°15.051 2°46.917 -999 -999 -999 -999 -999
2008-11-06 10:40 51°15.024 2°47.215 -999 -999 -999 -999 -999
2008-11-06 10:41 51°14.986 2°47.514 -999 -999 -999 -999 -999
2008-11-06 10:42 51°14.954 2°47.816 -999 -999 -999 -999 -999
2008-11-06 10:43 51°14.936 2°48.12 -999 -999 -999 -999 -999
2008-11-06 10:44 51°14.912 2°48.425 -999 -999 -999 -999 -999
2008-11-06 10:45 51°14.891 2°48.731 -999 -999 -999 -999 -999
2008-11-06 10:46 51°14.873 2°49.036 -999 -999 -999 -999 -999
2008-11-06 10:47 51°14.847 2°49.342 -999 -999 -999 -999 -999
2008-11-06 10:48 51°14.824 2°49.649 -999 -999 -999 -999 -999
2008-11-06 10:49 51°14.797 2°49.956 -999 -999 -999 -999 -999
2008-11-06 10:50 51°14.783 2°50.262 -999 -999 -999 -999 -999
2008-11-06 10:51 51°14.773 2°50.568 -999 -999 -999 -999 -999
2008-11-06 10:52 51°14.759 2°50.873 -999 -999 -999 -999 -999
2008-11-06 10:53 51°14.741 2°51.177 -999 -999 -999 -999 -999
2008-11-06 10:54 51°14.725 2°51.479 -999 -999 -999 -999 -999
2008-11-06 10:55 51°14.712 2°51.78 -999 -999 -999 -999 -999
2008-11-06 10:56 51°14.717 2°52.081 -999 -999 -999 -999 -999
2008-11-06 10:57 51°14.732 2°52.38 -999 -999 -999 -999 -999
2008-11-06 10:58 51°14.754 2°52.679 -999 -999 -999 -999 -999
2008-11-06 10:59 51°14.769 2°52.98 -999 -999 -999 -999 -999
2008-11-06 11:00 51°14.764 2°53.283 -999 -999 -999 -999 -999
2008-11-06 11:01 51°14.743 2°53.59 -999 -999 -999 -999 -999
2008-11-06 11:02 51°14.707 2°53.892 -999 -999 -999 -999 -999
2008-11-06 11:03 51°14.65 2°54.188 -999 -999 -999 -999 -999
2008-11-06 11:04 51°14.585 2°54.478 -999 -999 -999 -999 -999
2008-11-06 11:05 51°14.491 2°54.753 -999 -999 -999 -999 -999
2008-11-06 11:06 51°14.38 2°55.01 -999 -999 -999 -999 -999
2008-11-06 11:07 51°14.259 2°55.256 -999 -999 -999 -999 -999
2008-11-06 11:08 51°14.145 2°55.395 -999 -999 -999 -999 -999
2008-11-06 11:09 51°14.074 2°55.459 -999 -999 -999 -999 -999
2008-11-06 11:10 51°14.009 2°55.509 -999 -999 -999 -999 -999
2008-11-06 11:11 51°13.932 2°55.562 -999 -999 -999 -999 -999
2008-11-06 11:12 51°13.847 2°55.62 -999 -999 -999 -999 -999
2008-11-06 11:13 51°13.776 2°55.688 -999 -999 -999 -999 -999
2008-11-06 11:14 51°13.731 2°55.763 -999 -999 -999 -999 -999
2008-11-06 11:15 51°13.692 2°55.846 -999 -999 -999 -999 -999
2008-11-06 11:16 51°13.653 2°55.929 -999 -999 -999 -999 -999
2008-11-06 11:17 51°13.632 2°56.001 -999 -999 -999 -999 -999
2008-11-06 11:18 51°13.627 2°56.033 -999 -999 -999 -999 -999
2008-11-06 11:19 51°13.623 2°56.045 -999 -999 -999 -999 -999